sensor_id;sensor_type;location;lat;lon;timestamp;pressure;altitude;pressure_sealevel;temperature;humidity
27623;BME280;15041;45.334;5.622;2023-10-09T00:02:24;100057.56;;;19.85;61.96
27623;BME280;15041;45.334;5.622;2023-10-09T00:04:51;100055.88;;;19.89;62.12
27623;BME280;15041;45.334;5.622;2023-10-09T00:07:19;100053.91;;;19.76;62.29
27623;BME280;15041;45.334;5.622;2023-10-09T00:09:50;100060.34;;;19.53;63.14
27623;BME280;15041;45.334;5.622;2023-10-09T00:12:21;100052.50;;;19.46;64.38
27623;BME280;15041;45.334;5.622;2023-10-09T00:14:49;100042.09;;;19.62;63.79
27623;BME280;15041;45.334;5.622;2023-10-09T00:17:21;100045.75;;;19.39;64.42
27623;BME280;15041;45.334;5.622;2023-10-09T00:23:06;100041.47;;;19.51;63.79
27623;BME280;15041;45.334;5.622;2023-10-09T00:25:40;100054.84;;;19.53;63.57
27623;BME280;15041;45.334;5.622;2023-10-09T00:28:31;100053.19;;;19.52;63.26
27623;BME280;15041;45.334;5.622;2023-10-09T00:30:59;100054.47;;;19.59;63.49
27623;BME280;15041;45.334;5.622;2023-10-09T00:33:31;100043.34;;;19.69;62.95
27623;BME280;15041;45.334;5.622;2023-10-09T00:36:02;100046.38;;;19.68;62.06
27623;BME280;15041;45.334;5.622;2023-10-09T00:38:37;100044.66;;;19.72;61.59
27623;BME280;15041;45.334;5.622;2023-10-09T00:41:11;100041.72;;;19.68;61.53
27623;BME280;15041;45.334;5.622;2023-10-09T00:43:45;100032.31;;;19.56;61.79
27623;BME280;15041;45.334;5.622;2023-10-09T00:46:16;100041.31;;;19.43;62.61
27623;BME280;15041;45.334;5.622;2023-10-09T00:48:53;100036.56;;;19.48;62.58
27623;BME280;15041;45.334;5.622;2023-10-09T00:51:22;100042.25;;;19.52;62.42
27623;BME280;15041;45.334;5.622;2023-10-09T00:53:52;100036.66;;;19.43;62.36
27623;BME280;15041;45.334;5.622;2023-10-09T00:56:21;100049.53;;;19.43;61.73
27623;BME280;15041;45.334;5.622;2023-10-09T00:58:56;100047.16;;;19.18;63.37
27623;BME280;15041;45.334;5.622;2023-10-09T01:01:26;100034.56;;;19.17;64.08
27623;BME280;15041;45.334;5.622;2023-10-09T01:04:01;100048.84;;;19.51;62.73
27623;BME280;15041;45.334;5.622;2023-10-09T01:06:38;100036.50;;;19.35;62.52
27623;BME280;15041;45.334;5.622;2023-10-09T01:09:13;100033.19;;;19.38;63.21
27623;BME280;15041;45.334;5.622;2023-10-09T01:11:42;100020.97;;;19.49;62.42
27623;BME280;15041;45.334;5.622;2023-10-09T01:14:17;100023.50;;;19.27;63.29
27623;BME280;15041;45.334;5.622;2023-10-09T01:16:47;100026.91;;;19.19;63.38
27623;BME280;15041;45.334;5.622;2023-10-09T01:19:14;100032.59;;;19.04;64.38
27623;BME280;15041;45.334;5.622;2023-10-09T01:21:49;100028.28;;;19.16;63.97
27623;BME280;15041;45.334;5.622;2023-10-09T01:24:19;100028.91;;;18.95;64.39
27623;BME280;15041;45.334;5.622;2023-10-09T01:26:48;100027.19;;;18.99;64.31
27623;BME280;15041;45.334;5.622;2023-10-09T01:29:17;100029.41;;;18.97;64.70
27623;BME280;15041;45.334;5.622;2023-10-09T01:31:46;100030.31;;;19.11;63.56
27623;BME280;15041;45.334;5.622;2023-10-09T01:34:21;100032.50;;;19.09;63.94
27623;BME280;15041;45.334;5.622;2023-10-09T01:37:00;100015.66;;;19.02;63.88
27623;BME280;15041;45.334;5.622;2023-10-09T01:39:32;100019.41;;;19.06;63.93
27623;BME280;15041;45.334;5.622;2023-10-09T01:42:05;100024.38;;;19.04;63.06
27623;BME280;15041;45.334;5.622;2023-10-09T01:44:33;100035.78;;;19.11;62.95
27623;BME280;15041;45.334;5.622;2023-10-09T01:47:01;100019.50;;;19.01;63.42
27623;BME280;15041;45.334;5.622;2023-10-09T01:49:33;100038.25;;;18.89;64.63
27623;BME280;15041;45.334;5.622;2023-10-09T01:52:03;100029.56;;;18.87;64.34
27623;BME280;15041;45.334;5.622;2023-10-09T01:54:36;100016.66;;;19.06;63.18
27623;BME280;15041;45.334;5.622;2023-10-09T01:57:04;100030.06;;;18.89;63.14
27623;BME280;15041;45.334;5.622;2023-10-09T01:59:39;100019.50;;;19.01;63.11
27623;BME280;15041;45.334;5.622;2023-10-09T02:02:10;100008.41;;;19.11;62.26
27623;BME280;15041;45.334;5.622;2023-10-09T02:04:58;100028.59;;;18.96;62.93
27623;BME280;15041;45.334;5.622;2023-10-09T02:07:35;100025.94;;;18.91;63.27
27623;BME280;15041;45.334;5.622;2023-10-09T02:10:13;100036.66;;;18.88;64.13
27623;BME280;15041;45.334;5.622;2023-10-09T02:13:09;100030.38;;;18.87;64.09
27623;BME280;15041;45.334;5.622;2023-10-09T02:15:38;100034.63;;;18.75;64.38
27623;BME280;15041;45.334;5.622;2023-10-09T02:18:18;100041.31;;;18.87;64.72
27623;BME280;15041;45.334;5.622;2023-10-09T02:20:52;100034.00;;;18.83;63.92
27623;BME280;15041;45.334;5.622;2023-10-09T02:23:26;100040.97;;;18.94;63.15
27623;BME280;15041;45.334;5.622;2023-10-09T02:26:08;100043.31;;;18.82;63.36
27623;BME280;15041;45.334;5.622;2023-10-09T02:28:43;100039.63;;;18.91;63.17
27623;BME280;15041;45.334;5.622;2023-10-09T02:31:18;100044.63;;;18.84;63.58
27623;BME280;15041;45.334;5.622;2023-10-09T02:33:48;100042.84;;;18.75;64.03
27623;BME280;15041;45.334;5.622;2023-10-09T02:36:20;100037.53;;;18.65;64.76
27623;BME280;15041;45.334;5.622;2023-10-09T02:38:47;100038.09;;;18.62;64.92
27623;BME280;15041;45.334;5.622;2023-10-09T02:41:20;100046.09;;;18.58;65.16
27623;BME280;15041;45.334;5.622;2023-10-09T02:43:48;100039.16;;;18.66;64.97
27623;BME280;15041;45.334;5.622;2023-10-09T02:46:21;100046.84;;;18.64;65.23
27623;BME280;15041;45.334;5.622;2023-10-09T02:48:55;100043.84;;;18.60;65.16
27623;BME280;15041;45.334;5.622;2023-10-09T02:51:24;100048.81;;;18.58;65.34
27623;BME280;15041;45.334;5.622;2023-10-09T02:54:01;100053.75;;;18.56;65.09
27623;BME280;15041;45.334;5.622;2023-10-09T02:56:45;100044.75;;;18.56;64.87
27623;BME280;15041;45.334;5.622;2023-10-09T02:59:13;100054.16;;;18.68;64.00
27623;BME280;15041;45.334;5.622;2023-10-09T03:01:41;100056.06;;;18.67;64.38
27623;BME280;15041;45.334;5.622;2023-10-09T03:04:08;100055.41;;;18.76;63.44
27623;BME280;15041;45.334;5.622;2023-10-09T03:06:58;100056.41;;;18.61;64.02
27623;BME280;15041;45.334;5.622;2023-10-09T03:09:26;100069.34;;;18.56;64.74
27623;BME280;15041;45.334;5.622;2023-10-09T03:11:56;100059.97;;;18.62;64.34
27623;BME280;15041;45.334;5.622;2023-10-09T03:14:29;100060.97;;;18.47;64.75
27623;BME280;15041;45.334;5.622;2023-10-09T03:16:57;100069.13;;;18.23;65.96
27623;BME280;15041;45.334;5.622;2023-10-09T03:19:26;100079.97;;;18.33;66.16
27623;BME280;15041;45.334;5.622;2023-10-09T03:21:54;100066.16;;;18.48;65.82
27623;BME280;15041;45.334;5.622;2023-10-09T03:24:23;100080.41;;;17.60;70.71
27623;BME280;15041;45.334;5.622;2023-10-09T03:26:51;100073.38;;;17.82;70.25
27623;BME280;15041;45.334;5.622;2023-10-09T03:29:23;100063.44;;;17.63;71.38
27623;BME280;15041;45.334;5.622;2023-10-09T03:31:50;100071.69;;;17.91;70.48
27623;BME280;15041;45.334;5.622;2023-10-09T03:34:17;100069.47;;;17.93;69.82
27623;BME280;15041;45.334;5.622;2023-10-09T03:36:45;100064.50;;;17.95;69.38
27623;BME280;15041;45.334;5.622;2023-10-09T03:39:14;100059.03;;;18.00;69.61
27623;BME280;15041;45.334;5.622;2023-10-09T03:41:51;100061.47;;;18.02;69.97
27623;BME280;15041;45.334;5.622;2023-10-09T03:44:19;100071.38;;;18.21;68.92
27623;BME280;15041;45.334;5.622;2023-10-09T03:46:49;100070.41;;;18.07;68.92
27623;BME280;15041;45.334;5.622;2023-10-09T03:49:17;100075.41;;;18.00;69.18
27623;BME280;15041;45.334;5.622;2023-10-09T03:51:49;100079.22;;;17.99;69.17
27623;BME280;15041;45.334;5.622;2023-10-09T03:54:16;100069.94;;;18.00;69.55
27623;BME280;15041;45.334;5.622;2023-10-09T03:56:46;100068.88;;;17.96;69.61
27623;BME280;15041;45.334;5.622;2023-10-09T03:59:15;100063.88;;;18.03;68.57
27623;BME280;15041;45.334;5.622;2023-10-09T04:01:43;100064.38;;;18.10;68.56
27623;BME280;15041;45.334;5.622;2023-10-09T04:04:12;100062.63;;;18.19;67.51
27623;BME280;15041;45.334;5.622;2023-10-09T04:06:40;100065.75;;;18.08;68.09
27623;BME280;15041;45.334;5.622;2023-10-09T04:09:08;100066.50;;;17.85;69.67
27623;BME280;15041;45.334;5.622;2023-10-09T04:11:54;100062.66;;;17.57;72.82
27623;BME280;15041;45.334;5.622;2023-10-09T04:14:44;100061.88;;;17.85;71.38
27623;BME280;15041;45.334;5.622;2023-10-09T04:17:16;100059.31;;;17.70;72.00
27623;BME280;15041;45.334;5.622;2023-10-09T04:20:02;100064.59;;;17.57;72.51
27623;BME280;15041;45.334;5.622;2023-10-09T04:22:47;100065.13;;;17.59;72.33
27623;BME280;15041;45.334;5.622;2023-10-09T04:25:25;100064.84;;;17.60;71.88
27623;BME280;15041;45.334;5.622;2023-10-09T04:27:55;100059.91;;;17.24;74.87
27623;BME280;15041;45.334;5.622;2023-10-09T04:30:34;100062.72;;;17.52;73.19
27623;BME280;15041;45.334;5.622;2023-10-09T04:33:06;100057.84;;;17.49;72.93
27623;BME280;15041;45.334;5.622;2023-10-09T04:35:38;100057.84;;;17.49;72.70
27623;BME280;15041;45.334;5.622;2023-10-09T04:38:11;100052.91;;;17.51;72.37
27623;BME280;15041;45.334;5.622;2023-10-09T04:40:38;100061.81;;;17.28;73.13
27623;BME280;15041;45.334;5.622;2023-10-09T04:43:18;100055.78;;;17.26;73.73
27623;BME280;15041;45.334;5.622;2023-10-09T04:45:48;100056.25;;;17.38;73.64
27623;BME280;15041;45.334;5.622;2023-10-09T04:48:33;100064.47;;;17.33;73.72
27623;BME280;15041;45.334;5.622;2023-10-09T04:51:05;100062.84;;;17.32;73.55
27623;BME280;15041;45.334;5.622;2023-10-09T04:53:47;100054.28;;;17.49;72.37
27623;BME280;15041;45.334;5.622;2023-10-09T04:56:25;100057.84;;;17.44;72.96
27623;BME280;15041;45.334;5.622;2023-10-09T04:58:57;100069.88;;;17.43;72.96
27623;BME280;15041;45.334;5.622;2023-10-09T05:01:30;100059.94;;;17.57;71.28
27623;BME280;15041;45.334;5.622;2023-10-09T05:04:28;100068.16;;;17.14;73.52
27623;BME280;15041;45.334;5.622;2023-10-09T05:07:07;100073.19;;;17.40;72.50
27623;BME280;15041;45.334;5.622;2023-10-09T05:10:12;100061.66;;;17.48;71.47
27623;BME280;15041;45.334;5.622;2023-10-09T05:12:43;100069.94;;;17.33;72.07
27623;BME280;15041;45.334;5.622;2023-10-09T05:15:13;100062.75;;;17.47;71.39
27623;BME280;15041;45.334;5.622;2023-10-09T05:17:41;100067.25;;;17.28;72.57
27623;BME280;15041;45.334;5.622;2023-10-09T05:20:22;100073.34;;;17.15;73.45
27623;BME280;15041;45.334;5.622;2023-10-09T05:23:23;100074.69;;;17.18;73.87
27623;BME280;15041;45.334;5.622;2023-10-09T05:25:51;100073.34;;;17.15;73.83
27623;BME280;15041;45.334;5.622;2023-10-09T05:28:21;100071.56;;;17.34;72.69
27623;BME280;15041;45.334;5.622;2023-10-09T05:30:57;100069.44;;;17.26;73.25
27623;BME280;15041;45.334;5.622;2023-10-09T05:33:33;100067.16;;;17.43;72.17
27623;BME280;15041;45.334;5.622;2023-10-09T05:36:03;100080.66;;;17.20;72.28
27623;BME280;15041;45.334;5.622;2023-10-09T05:38:58;100078.59;;;17.02;73.44
27623;BME280;15041;45.334;5.622;2023-10-09T05:41:44;100071.25;;;16.97;74.40
27623;BME280;15041;45.334;5.622;2023-10-09T05:44:18;100073.34;;;17.10;73.20
27623;BME280;15041;45.334;5.622;2023-10-09T05:47:03;100080.59;;;16.86;74.30
27623;BME280;15041;45.334;5.622;2023-10-09T05:49:47;100066.09;;;16.91;74.21
27623;BME280;15041;45.334;5.622;2023-10-09T05:52:27;100077.78;;;17.01;73.95
27623;BME280;15041;45.334;5.622;2023-10-09T05:55:14;100072.72;;;17.28;72.37
27623;BME280;15041;45.334;5.622;2023-10-09T05:58:08;100073.22;;;17.30;71.50
27623;BME280;15041;45.334;5.622;2023-10-09T06:00:53;100071.03;;;17.32;71.71
27623;BME280;15041;45.334;5.622;2023-10-09T06:03:46;100089.00;;;16.95;73.79
27623;BME280;15041;45.334;5.622;2023-10-09T06:06:21;100080.50;;;17.01;73.56
27623;BME280;15041;45.334;5.622;2023-10-09T06:09:09;100081.06;;;17.03;73.46
27623;BME280;15041;45.334;5.622;2023-10-09T06:11:54;100083.69;;;17.18;73.08
27623;BME280;15041;45.334;5.622;2023-10-09T06:14:42;100085.81;;;17.26;72.41
27623;BME280;15041;45.334;5.622;2023-10-09T06:17:15;100085.84;;;17.21;72.39
27623;BME280;15041;45.334;5.622;2023-10-09T06:19:50;100085.88;;;17.16;73.10
27623;BME280;15041;45.334;5.622;2023-10-09T06:22:24;100090.78;;;17.19;71.93
27623;BME280;15041;45.334;5.622;2023-10-09T06:25:09;100088.66;;;17.11;72.41
27623;BME280;15041;45.334;5.622;2023-10-09T06:27:39;100090.28;;;17.12;73.69
27623;BME280;15041;45.334;5.622;2023-10-09T06:30:20;100089.72;;;17.15;74.02
27623;BME280;15041;45.334;5.622;2023-10-09T06:32:52;100094.03;;;17.21;73.60
27623;BME280;15041;45.334;5.622;2023-10-09T06:35:34;100094.53;;;17.28;73.05
27623;BME280;15041;45.334;5.622;2023-10-09T06:38:02;100094.75;;;16.88;75.97
27623;BME280;15041;45.334;5.622;2023-10-09T06:40:50;100095.78;;;16.97;76.66
27623;BME280;15041;45.334;5.622;2023-10-09T06:43:51;100098.50;;;17.07;76.12
27623;BME280;15041;45.334;5.622;2023-10-09T06:46:20;100095.72;;;17.12;76.02
27623;BME280;15041;45.334;5.622;2023-10-09T06:49:10;100097.16;;;17.05;77.17
27623;BME280;15041;45.334;5.622;2023-10-09T06:51:55;100101.75;;;17.09;77.57
27623;BME280;15041;45.334;5.622;2023-10-09T06:54:40;100110.47;;;17.11;76.31
27623;BME280;15041;45.334;5.622;2023-10-09T06:57:33;100110.03;;;16.94;75.66
27623;BME280;15041;45.334;5.622;2023-10-09T07:00:22;100111.09;;;16.98;77.75
27623;BME280;15041;45.334;5.622;2023-10-09T07:03:06;100122.72;;;16.60;80.19
27623;BME280;15041;45.334;5.622;2023-10-09T07:05:37;100117.25;;;16.60;80.71
27623;BME280;15041;45.334;5.622;2023-10-09T07:08:26;100124.31;;;16.66;80.15
27623;BME280;15041;45.334;5.622;2023-10-09T07:10:58;100123.75;;;16.69;80.11
27623;BME280;15041;45.334;5.622;2023-10-09T07:13:47;100134.69;;;16.64;81.26
27623;BME280;15041;45.334;5.622;2023-10-09T07:16:23;100128.63;;;16.72;80.88
27623;BME280;15041;45.334;5.622;2023-10-09T07:18:49;100130.28;;;16.73;81.79
27623;BME280;15041;45.334;5.622;2023-10-09T07:21:20;100119.94;;;16.70;82.86
27623;BME280;15041;45.334;5.622;2023-10-09T07:23:55;100121.53;;;16.81;82.22
27623;BME280;15041;45.334;5.622;2023-10-09T07:26:24;100111.41;;;16.82;82.24
27623;BME280;15041;45.334;5.622;2023-10-09T07:29:03;100122.56;;;16.85;81.93
27623;BME280;15041;45.334;5.622;2023-10-09T07:31:50;100122.09;;;16.78;84.33
27623;BME280;15041;45.334;5.622;2023-10-09T07:34:42;100130.63;;;17.10;81.10
27623;BME280;15041;45.334;5.622;2023-10-09T07:37:26;100124.69;;;17.03;81.89
27623;BME280;15041;45.334;5.622;2023-10-09T07:39:56;100131.84;;;16.94;81.82
27623;BME280;15041;45.334;5.622;2023-10-09T07:42:25;100131.25;;;16.97;81.20
27623;BME280;15041;45.334;5.622;2023-10-09T07:45:10;100131.22;;;17.07;80.40
27623;BME280;15041;45.334;5.622;2023-10-09T07:48:01;100123.03;;;17.07;80.19
27623;BME280;15041;45.334;5.622;2023-10-09T07:50:35;100126.78;;;17.21;77.94
27623;BME280;15041;45.334;5.622;2023-10-09T07:53:06;100125.63;;;17.27;75.95
27623;BME280;15041;45.334;5.622;2023-10-09T07:55:46;100134.38;;;17.29;79.19
27623;BME280;15041;45.334;5.622;2023-10-09T07:58:20;100130.63;;;17.15;80.88
27623;BME280;15041;45.334;5.622;2023-10-09T08:00:52;100131.16;;;17.17;82.30
27623;BME280;15041;45.334;5.622;2023-10-09T08:03:43;100129.47;;;17.26;81.71
27623;BME280;15041;45.334;5.622;2023-10-09T08:06:12;100127.75;;;17.35;81.29
27623;BME280;15041;45.334;5.622;2023-10-09T08:09:06;100133.22;;;17.35;81.77
27623;BME280;15041;45.334;5.622;2023-10-09T08:12:04;100125.59;;;17.37;82.48
27623;BME280;15041;45.334;5.622;2023-10-09T08:15:01;100137.06;;;17.34;84.20
27623;BME280;15041;45.334;5.622;2023-10-09T08:17:44;100123.69;;;17.33;83.13
27623;BME280;15041;45.334;5.622;2023-10-09T08:20:21;100129.97;;;17.77;82.55
27623;BME280;15041;45.334;5.622;2023-10-09T08:22:51;100133.34;;;18.26;78.44
27623;BME280;15041;45.334;5.622;2023-10-09T08:25:21;100135.50;;;18.58;76.86
27623;BME280;15041;45.334;5.622;2023-10-09T08:28:16;100129.00;;;18.96;75.38
27623;BME280;15041;45.334;5.622;2023-10-09T08:31:01;100132.94;;;19.32;73.74
27623;BME280;15041;45.334;5.622;2023-10-09T08:33:45;100129.47;;;19.63;71.84
27623;BME280;15041;45.334;5.622;2023-10-09T08:36:12;100130.38;;;19.91;68.61
27623;BME280;15041;45.334;5.622;2023-10-09T08:38:48;100125.09;;;20.13;67.73
27623;BME280;15041;45.334;5.622;2023-10-09T08:41:14;100120.56;;;20.49;65.35
27623;BME280;15041;45.334;5.622;2023-10-09T08:43:50;100122.69;;;20.79;64.12
27623;BME280;15041;45.334;5.622;2023-10-09T08:46:21;100127.59;;;20.82;66.15
27623;BME280;15041;45.334;5.622;2023-10-09T08:48:50;100125.97;;;21.08;65.59
27623;BME280;15041;45.334;5.622;2023-10-09T08:51:19;100122.94;;;21.45;64.01
27623;BME280;15041;45.334;5.622;2023-10-09T08:53:46;100116.66;;;21.66;61.65
27623;BME280;15041;45.334;5.622;2023-10-09T08:56:13;100106.31;;;21.85;58.86
27623;BME280;15041;45.334;5.622;2023-10-09T08:58:49;100107.03;;;22.21;58.04
27623;BME280;15041;45.334;5.622;2023-10-09T09:01:17;100113.28;;;22.44;56.39
27623;BME280;15041;45.334;5.622;2023-10-09T09:03:47;100114.28;;;22.87;54.51
27623;BME280;15041;45.334;5.622;2023-10-09T09:06:18;100113.03;;;23.10;53.58
27623;BME280;15041;45.334;5.622;2023-10-09T09:08:46;100091.16;;;23.13;51.58
27623;BME280;15041;45.334;5.622;2023-10-09T09:11:15;100107.44;;;23.40;50.48
27623;BME280;15041;45.334;5.622;2023-10-09T09:13:44;100107.44;;;23.66;50.68
27623;BME280;15041;45.334;5.622;2023-10-09T09:16:25;100100.13;;;23.87;52.01
27623;BME280;15041;45.334;5.622;2023-10-09T09:18:56;100101.13;;;23.91;52.15
27623;BME280;15041;45.334;5.622;2023-10-09T09:21:32;100110.53;;;23.73;52.10
27623;BME280;15041;45.334;5.622;2023-10-09T09:24:05;100101.91;;;24.09;51.93
27623;BME280;15041;45.334;5.622;2023-10-09T09:26:42;100106.88;;;24.32;51.00
27623;BME280;15041;45.334;5.622;2023-10-09T09:29:14;100102.06;;;24.58;49.23
27623;BME280;15041;45.334;5.622;2023-10-09T09:31:54;100101.72;;;24.60;49.17
27623;BME280;15041;45.334;5.622;2023-10-09T09:34:23;100095.09;;;24.90;48.10
27623;BME280;15041;45.334;5.622;2023-10-09T09:37:18;100098.50;;;24.95;46.14
27623;BME280;15041;45.334;5.622;2023-10-09T09:39:47;100097.84;;;25.19;46.21
27623;BME280;15041;45.334;5.622;2023-10-09T09:42:17;100096.97;;;25.27;46.16
27623;BME280;15041;45.334;5.622;2023-10-09T09:44:51;100097.59;;;25.32;46.42
27623;BME280;15041;45.334;5.622;2023-10-09T09:47:19;100102.59;;;25.59;45.89
27623;BME280;15041;45.334;5.622;2023-10-09T09:49:53;100095.66;;;25.53;45.52
27623;BME280;15041;45.334;5.622;2023-10-09T09:52:28;100096.88;;;25.64;44.73
27623;BME280;15041;45.334;5.622;2023-10-09T09:55:06;100091.28;;;25.52;46.03
27623;BME280;15041;45.334;5.622;2023-10-09T09:57:40;100098.09;;;25.87;44.54
27623;BME280;15041;45.334;5.622;2023-10-09T10:00:12;100088.19;;;26.07;42.77
27623;BME280;15041;45.334;5.622;2023-10-09T10:02:56;100083.78;;;26.06;42.92
27623;BME280;15041;45.334;5.622;2023-10-09T10:05:25;100094.06;;;26.17;43.27
27623;BME280;15041;45.334;5.622;2023-10-09T10:07:59;100084.88;;;26.13;42.70
27623;BME280;15041;45.334;5.622;2023-10-09T10:10:37;100081.34;;;26.04;44.87
27623;BME280;15041;45.334;5.622;2023-10-09T10:13:13;100079.06;;;26.06;45.44
27623;BME280;15041;45.334;5.622;2023-10-09T10:16:05;100072.41;;;26.19;43.86
27623;BME280;15041;45.334;5.622;2023-10-09T10:18:55;100067.81;;;26.35;43.56
27623;BME280;15041;45.334;5.622;2023-10-09T10:21:37;100067.34;;;26.33;42.48
27623;BME280;15041;45.334;5.622;2023-10-09T10:24:44;100066.78;;;26.40;42.67
27623;BME280;15041;45.334;5.622;2023-10-09T10:27:28;100062.09;;;26.76;42.37
27623;BME280;15041;45.334;5.622;2023-10-09T10:30:26;100062.91;;;26.89;42.08
27623;BME280;15041;45.334;5.622;2023-10-09T10:33:15;100055.63;;;26.72;43.37
27623;BME280;15041;45.334;5.622;2023-10-09T10:35:42;100050.75;;;27.05;42.48
27623;BME280;15041;45.334;5.622;2023-10-09T10:38:25;100050.31;;;26.91;43.52
27623;BME280;15041;45.334;5.622;2023-10-09T10:41:13;100040.50;;;26.82;44.64
27623;BME280;15041;45.334;5.622;2023-10-09T10:43:43;100040.88;;;26.68;44.36
27623;BME280;15041;45.334;5.622;2023-10-09T10:46:46;100038.06;;;26.56;46.11
27623;BME280;15041;45.334;5.622;2023-10-09T10:49:18;100034.81;;;27.02;43.24
27623;BME280;15041;45.334;5.622;2023-10-09T10:51:50;100028.38;;;26.98;43.30
27623;BME280;15041;45.334;5.622;2023-10-09T10:54:45;100032.19;;;26.70;45.72
27623;BME280;15041;45.334;5.622;2023-10-09T10:57:18;100025.81;;;26.93;42.44
27623;BME280;15041;45.334;5.622;2023-10-09T11:00:19;100038.47;;;27.18;42.83
27623;BME280;15041;45.334;5.622;2023-10-09T11:03:04;100022.09;;;27.01;44.74
27623;BME280;15041;45.334;5.622;2023-10-09T11:05:43;100024.31;;;27.47;39.89
27623;BME280;15041;45.334;5.622;2023-10-09T11:08:16;100024.72;;;27.34;40.87
27623;BME280;15041;45.334;5.622;2023-10-09T11:10:51;100021.09;;;27.45;40.15
27623;BME280;15041;45.334;5.622;2023-10-09T11:13:27;100011.00;;;27.25;41.46
27623;BME280;15041;45.334;5.622;2023-10-09T11:16:17;100013.63;;;27.61;39.67
27623;BME280;15041;45.334;5.622;2023-10-09T11:18:54;100011.00;;;27.01;42.84
27623;BME280;15041;45.334;5.622;2023-10-09T11:21:23;100009.47;;;26.52;45.22
27623;BME280;15041;45.334;5.622;2023-10-09T11:24:07;100002.94;;;27.20;40.84
27623;BME280;15041;45.334;5.622;2023-10-09T11:26:52;100009.25;;;27.48;40.72
27623;BME280;15041;45.334;5.622;2023-10-09T11:29:24;99990.31;;;27.50;39.54
27623;BME280;15041;45.334;5.622;2023-10-09T11:32:02;100000.78;;;27.41;41.96
27623;BME280;15041;45.334;5.622;2023-10-09T11:34:32;99991.44;;;27.61;40.64
27623;BME280;15041;45.334;5.622;2023-10-09T11:37:02;99990.19;;;28.02;38.67
27623;BME280;15041;45.334;5.622;2023-10-09T11:39:30;99983.84;;;27.74;40.54
27623;BME280;15041;45.334;5.622;2023-10-09T11:42:19;99979.03;;;27.43;42.04
27623;BME280;15041;45.334;5.622;2023-10-09T11:45:03;99979.34;;;27.69;41.40
27623;BME280;15041;45.334;5.622;2023-10-09T11:47:46;99976.38;;;27.90;39.63
27623;BME280;15041;45.334;5.622;2023-10-09T11:50:40;99972.94;;;26.98;43.50
27623;BME280;15041;45.334;5.622;2023-10-09T11:53:16;99965.94;;;27.28;41.65
27623;BME280;15041;45.334;5.622;2023-10-09T11:55:59;99967.53;;;27.29;42.47
27623;BME280;15041;45.334;5.622;2023-10-09T11:58:27;99960.50;;;27.90;39.25
27623;BME280;15041;45.334;5.622;2023-10-09T12:00:58;99954.88;;;27.87;40.04
27623;BME280;15041;45.334;5.622;2023-10-09T12:03:29;99949.72;;;27.73;42.02
27623;BME280;15041;45.334;5.622;2023-10-09T12:05:57;99952.97;;;27.75;40.15
27623;BME280;15041;45.334;5.622;2023-10-09T12:08:30;99944.59;;;27.87;39.47
27623;BME280;15041;45.334;5.622;2023-10-09T12:10:58;99938.38;;;27.35;42.38
27623;BME280;15041;45.334;5.622;2023-10-09T12:13:28;99937.03;;;27.72;39.55
27623;BME280;15041;45.334;5.622;2023-10-09T12:15:58;99930.28;;;27.58;40.81
27623;BME280;15041;45.334;5.622;2023-10-09T12:18:25;99924.19;;;27.95;39.34
27623;BME280;15041;45.334;5.622;2023-10-09T12:20:54;99920.56;;;27.79;39.00
27623;BME280;15041;45.334;5.622;2023-10-09T12:23:28;99920.94;;;27.07;43.75
27623;BME280;15041;45.334;5.622;2023-10-09T12:26:00;99913.66;;;27.58;41.59
27623;BME280;15041;45.334;5.622;2023-10-09T12:28:27;99914.84;;;27.88;40.86
27623;BME280;15041;45.334;5.622;2023-10-09T12:30:55;99905.72;;;28.03;39.31
27623;BME280;15041;45.334;5.622;2023-10-09T12:33:29;99905.38;;;27.18;43.96
27623;BME280;15041;45.334;5.622;2023-10-09T12:35:57;99900.78;;;27.22;42.37
27623;BME280;15041;45.334;5.622;2023-10-09T12:38:26;99899.63;;;27.97;40.03
27623;BME280;15041;45.334;5.622;2023-10-09T12:41:07;99907.94;;;28.13;40.04
27623;BME280;15041;45.334;5.622;2023-10-09T12:43:41;99902.97;;;27.87;41.19
27623;BME280;15041;45.334;5.622;2023-10-09T12:46:09;99899.75;;;27.42;43.30
27623;BME280;15041;45.334;5.622;2023-10-09T12:48:37;99896.13;;;28.16;39.83
27623;BME280;15041;45.334;5.622;2023-10-09T12:51:11;99898.94;;;27.14;43.33
27623;BME280;15041;45.334;5.622;2023-10-09T12:53:42;99882.31;;;28.19;39.15
27623;BME280;15041;45.334;5.622;2023-10-09T12:56:09;99881.41;;;27.10;44.31
27623;BME280;15041;45.334;5.622;2023-10-09T12:58:37;99879.63;;;27.30;41.97
27623;BME280;15041;45.334;5.622;2023-10-09T13:01:05;99888.88;;;27.49;43.05
27623;BME280;15041;45.334;5.622;2023-10-09T13:03:39;99878.63;;;27.81;41.64
27623;BME280;15041;45.334;5.622;2023-10-09T13:06:06;99873.00;;;27.50;42.75
27623;BME280;15041;45.334;5.622;2023-10-09T13:08:36;99874.16;;;27.33;43.14
27623;BME280;15041;45.334;5.622;2023-10-09T13:11:07;99863.09;;;27.64;41.69
27623;BME280;15041;45.334;5.622;2023-10-09T13:13:37;99867.78;;;27.91;40.78
27623;BME280;15041;45.334;5.622;2023-10-09T13:16:12;99867.03;;;27.63;42.75
27623;BME280;15041;45.334;5.622;2023-10-09T13:18:50;99856.63;;;28.22;39.72
27623;BME280;15041;45.334;5.622;2023-10-09T13:21:18;99858.91;;;27.70;42.81
27623;BME280;15041;45.334;5.622;2023-10-09T13:23:46;99857.53;;;27.64;42.75
27623;BME280;15041;45.334;5.622;2023-10-09T13:26:17;99863.28;;;28.02;40.99
27623;BME280;15041;45.334;5.622;2023-10-09T13:28:45;99845.47;;;26.98;44.82
27623;BME280;15041;45.334;5.622;2023-10-09T13:31:13;99854.38;;;27.19;44.12
27623;BME280;15041;45.334;5.622;2023-10-09T13:33:41;99849.19;;;26.90;45.20
27623;BME280;15041;45.334;5.622;2023-10-09T13:36:11;99843.22;;;26.76;45.73
27623;BME280;15041;45.334;5.622;2023-10-09T13:39:04;99838.13;;;27.64;41.28
27623;BME280;15041;45.334;5.622;2023-10-09T13:41:59;99843.56;;;28.07;40.40